createdAt,value
2017-07-04T00:00:24.039Z,65.33
2017-07-04T00:01:24.704Z,65.23
2017-07-04T00:02:25.320Z,65.33
2017-07-04T00:03:25.936Z,65.33
2017-07-04T00:04:26.558Z,65.33
2017-07-04T00:05:27.205Z,65.42
2017-07-04T00:06:27.902Z,65.42
2017-07-04T00:07:28.523Z,65.33
2017-07-04T00:08:29.139Z,65.61
2017-07-04T00:09:29.789Z,65.70
2017-07-04T00:10:30.405Z,65.42
2017-07-04T00:11:31.069Z,65.61
2017-07-04T00:12:31.691Z,65.61
2017-07-04T00:13:32.339Z,65.70
2017-07-04T00:14:32.981Z,65.80
2017-07-04T00:15:33.630Z,65.61
2017-07-04T00:16:34.294Z,65.80
2017-07-04T00:17:34.915Z,66.05
2017-07-04T00:18:35.527Z,66.15
2017-07-04T00:19:36.170Z,66.09
2017-07-04T00:20:36.773Z,66.18
2017-07-04T00:21:37.438Z,66.28
2017-07-04T00:22:38.087Z,66.18
2017-07-04T00:23:38.736Z,65.89
2017-07-04T00:24:39.354Z,65.61
2017-07-04T00:25:39.966Z,65.70
2017-07-04T00:26:40.661Z,65.42
2017-07-04T00:27:41.266Z,65.61
2017-07-04T00:28:41.880Z,65.70
2017-07-04T00:29:42.497Z,66.34
2017-07-04T00:30:43.117Z,66.18
2017-07-04T00:31:43.781Z,66.09
2017-07-04T00:32:44.398Z,66.05
2017-07-04T00:33:45.020Z,66.53
2017-07-04T00:34:45.632Z,66.44
2017-07-04T00:35:46.248Z,66.44
2017-07-04T00:36:46.913Z,66.05
2017-07-04T00:37:47.530Z,66.24
2017-07-04T00:38:48.146Z,66.15
2017-07-04T00:39:48.761Z,66.34
2017-07-04T00:40:49.379Z,66.24
2017-07-04T00:41:50.050Z,66.53
2017-07-04T00:42:50.664Z,66.63
2017-07-04T00:43:51.279Z,66.53
2017-07-04T00:44:51.896Z,66.34
2017-07-04T00:45:52.512Z,66.63
2017-07-04T00:46:53.176Z,66.72
2017-07-04T00:47:53.792Z,67.00
2017-07-04T00:48:54.409Z,66.72
2017-07-04T00:49:55.065Z,66.44
2017-07-04T00:50:55.681Z,66.34
2017-07-04T00:51:56.344Z,66.53
2017-07-04T00:52:56.985Z,66.63
2017-07-04T00:53:57.587Z,66.53
2017-07-04T00:54:58.226Z,66.44
2017-07-04T00:55:58.829Z,66.44
2017-07-04T00:56:59.495Z,66.15
2017-07-04T00:58:00.110Z,66.53
2017-07-04T00:59:00.726Z,66.63
2017-07-04T01:00:01.374Z,66.63
2017-07-04T01:01:01.974Z,66.63
2017-07-04T01:02:02.641Z,66.63
2017-07-04T01:03:03.314Z,66.72
2017-07-04T01:04:03.914Z,66.53
2017-07-04T01:05:04.530Z,66.24
2017-07-04T01:06:05.173Z,66.53
2017-07-04T01:07:05.827Z,66.82
2017-07-04T01:08:06.469Z,66.44
2017-07-04T01:09:07.099Z,66.53
2017-07-04T01:10:07.728Z,66.82
2017-07-04T01:11:08.329Z,66.53
2017-07-04T01:12:08.995Z,66.34
2017-07-04T01:13:09.610Z,66.15
2017-07-04T01:14:10.228Z,66.24
2017-07-04T01:15:10.873Z,66.53
2017-07-04T01:16:11.473Z,66.72
2017-07-04T01:17:12.138Z,66.34
2017-07-04T01:18:12.755Z,67.00
2017-07-04T01:19:13.377Z,67.20
2017-07-04T01:20:14.018Z,66.63
2017-07-04T01:21:14.634Z,66.63
2017-07-04T01:22:15.299Z,67.10
2017-07-04T01:23:15.945Z,66.91
2017-07-04T01:24:16.551Z,66.72
2017-07-04T01:25:17.163Z,66.91
2017-07-04T01:26:17.780Z,67.29
2017-07-04T01:27:18.445Z,66.91
2017-07-04T01:28:19.061Z,67.58
2017-07-04T01:29:19.685Z,67.39
2017-07-04T01:30:20.295Z,67.39
2017-07-04T01:31:20.910Z,67.48
2017-07-04T01:32:21.576Z,67.48
2017-07-04T01:33:22.192Z,67.39
2017-07-04T01:34:22.807Z,67.39
2017-07-04T01:35:23.423Z,67.48
2017-07-04T01:36:24.072Z,67.39
2017-07-04T01:37:24.736Z,67.29
2017-07-04T01:38:25.351Z,67.29
2017-07-04T01:39:25.967Z,67.20
2017-07-04T01:40:26.584Z,67.29
2017-07-04T01:41:27.199Z,67.29
2017-07-04T01:42:27.899Z,67.68
2017-07-04T01:43:28.513Z,67.58
2017-07-04T01:44:29.164Z,67.55
2017-07-04T01:45:29.776Z,67.58
2017-07-04T01:46:30.423Z,67.58
2017-07-04T01:47:31.072Z,67.48
2017-07-04T01:48:31.744Z,67.39
2017-07-04T01:49:32.347Z,67.45
2017-07-04T01:50:32.965Z,67.55
2017-07-04T01:51:33.588Z,67.93
2017-07-04T01:52:34.249Z,67.83
2017-07-04T01:53:34.863Z,67.93
2017-07-04T01:54:35.480Z,67.93
2017-07-04T01:55:36.098Z,67.83
2017-07-04T01:56:36.712Z,68.15
2017-07-04T01:57:37.386Z,67.96
2017-07-04T01:58:38.002Z,67.83
2017-07-04T01:59:38.619Z,67.96
2017-07-04T02:00:39.235Z,67.58
2017-07-04T02:01:39.850Z,67.29
2017-07-04T02:02:40.466Z,67.48
2017-07-04T02:03:41.080Z,67.58
2017-07-04T02:04:41.695Z,67.10
2017-07-04T02:05:42.312Z,67.39
2017-07-04T02:06:42.929Z,67.39
2017-07-04T02:07:43.595Z,67.39
2017-07-04T02:08:44.245Z,67.48
2017-07-04T02:09:44.861Z,67.39
2017-07-04T02:10:45.474Z,67.39
2017-07-04T02:11:46.093Z,67.64
2017-07-04T02:12:46.756Z,67.93
2017-07-04T02:13:47.378Z,67.93
2017-07-04T02:14:47.990Z,68.02
2017-07-04T02:15:48.636Z,68.02
2017-07-04T02:16:49.252Z,67.93
2017-07-04T02:17:49.952Z,68.02
2017-07-04T02:18:50.549Z,67.74
2017-07-04T02:19:51.164Z,67.83
2017-07-04T02:20:51.784Z,67.68
2017-07-04T02:21:52.398Z,67.93
2017-07-04T02:22:53.067Z,68.12
2017-07-04T02:23:53.680Z,68.02
2017-07-04T02:24:54.295Z,68.02
2017-07-04T02:25:54.912Z,67.83
2017-07-04T02:26:55.526Z,67.74
2017-07-04T02:27:56.197Z,67.64
2017-07-04T02:28:56.811Z,67.74
2017-07-04T02:29:57.425Z,67.74
2017-07-04T02:30:58.041Z,67.93
2017-07-04T02:31:58.683Z,67.93
2017-07-04T02:32:59.335Z,67.93
2017-07-04T02:33:59.951Z,67.83
2017-07-04T02:35:00.567Z,67.93
2017-07-04T02:36:01.183Z,67.77
2017-07-04T02:37:01.799Z,67.74
2017-07-04T02:38:02.465Z,67.74
2017-07-04T02:39:03.081Z,67.68
2017-07-04T02:40:03.698Z,67.74
2017-07-04T02:41:04.313Z,67.93
2017-07-04T02:42:04.929Z,67.74
2017-07-04T02:43:05.651Z,67.74
2017-07-04T02:44:06.253Z,67.93
2017-07-04T02:45:06.873Z,68.02
2017-07-04T02:46:07.485Z,68.12
2017-07-04T02:47:08.125Z,68.40
2017-07-04T02:48:08.777Z,68.40
2017-07-04T02:49:09.394Z,68.30
2017-07-04T02:50:10.009Z,68.30
2017-07-04T02:51:10.626Z,68.30
2017-07-04T02:52:11.240Z,68.59
2017-07-04T02:53:11.905Z,68.50
2017-07-04T02:54:12.527Z,68.12
2017-07-04T02:55:13.143Z,68.59
2017-07-04T02:56:13.757Z,68.50
2017-07-04T02:57:14.371Z,68.59
2017-07-04T02:58:15.036Z,68.50
2017-07-04T02:59:15.654Z,68.30
2017-07-04T03:00:16.303Z,68.59
2017-07-04T03:01:16.924Z,68.40
2017-07-04T03:02:17.542Z,68.50
2017-07-04T03:03:18.240Z,68.78
2017-07-04T03:04:18.853Z,68.88
2017-07-04T03:05:19.470Z,68.40
2017-07-04T03:06:20.147Z,68.69
2017-07-04T03:07:20.749Z,68.50
2017-07-04T03:08:21.421Z,68.50
2017-07-04T03:09:22.036Z,68.78
2017-07-04T03:10:22.651Z,68.78
2017-07-04T03:11:23.266Z,68.69
2017-07-04T03:12:23.882Z,68.69
2017-07-04T03:13:24.546Z,68.69
2017-07-04T03:14:25.163Z,68.40
2017-07-04T03:15:25.811Z,68.69
2017-07-04T03:16:26.410Z,68.50
2017-07-04T03:17:27.056Z,68.98
2017-07-04T03:18:27.732Z,68.40
2017-07-04T03:19:28.362Z,68.98
2017-07-04T03:20:28.965Z,68.69
2017-07-04T03:21:29.578Z,68.69
2017-07-04T03:22:30.221Z,68.59
2017-07-04T03:23:30.874Z,68.88
2017-07-04T03:24:31.489Z,68.21
2017-07-04T03:25:32.104Z,68.59
2017-07-04T03:26:32.723Z,68.78
2017-07-04T03:27:33.338Z,68.50
2017-07-04T03:28:34.002Z,68.40
2017-07-04T03:29:34.619Z,68.50
2017-07-04T03:30:35.233Z,68.59
2017-07-04T03:31:35.876Z,68.30
2017-07-04T03:32:36.476Z,68.30
2017-07-04T03:33:37.141Z,68.40
2017-07-04T03:34:37.756Z,68.59
2017-07-04T03:35:38.380Z,68.59
2017-07-04T03:36:38.994Z,68.78
2017-07-04T03:37:39.609Z,68.78
2017-07-04T03:38:40.308Z,68.69
2017-07-04T03:39:40.923Z,68.69
2017-07-04T03:40:41.543Z,68.40
2017-07-04T03:41:42.157Z,68.78
2017-07-04T03:42:42.772Z,68.69
2017-07-04T03:43:43.439Z,68.98
2017-07-04T03:44:44.054Z,68.98
2017-07-04T03:45:44.669Z,68.69
2017-07-04T03:46:45.315Z,68.69
2017-07-04T03:47:45.964Z,68.88
2017-07-04T03:48:46.661Z,68.98
2017-07-04T03:49:47.261Z,68.88
2017-07-04T03:50:47.875Z,68.78
2017-07-04T03:51:48.489Z,68.78
2017-07-04T03:52:49.133Z,68.59
2017-07-04T03:53:49.785Z,68.78
2017-07-04T03:54:50.402Z,68.69
2017-07-04T03:55:51.019Z,68.50
2017-07-04T03:56:51.635Z,69.26
2017-07-04T03:57:52.250Z,69.17
2017-07-04T03:58:52.917Z,69.17
2017-07-04T03:59:53.532Z,69.23
2017-07-04T04:00:54.156Z,69.13
2017-07-04T04:01:54.769Z,69.04
2017-07-04T04:02:55.391Z,69.07
2017-07-04T04:03:56.054Z,69.23
2017-07-04T04:04:56.678Z,69.51
2017-07-04T04:05:57.294Z,69.60
2017-07-04T04:06:57.907Z,69.51
2017-07-04T04:07:58.522Z,69.60
2017-07-04T04:08:59.189Z,69.35
2017-07-04T04:09:59.811Z,69.54
2017-07-04T04:11:00.427Z,69.35
2017-07-04T04:12:01.047Z,69.32
2017-07-04T04:13:01.659Z,69.17
2017-07-04T04:14:02.356Z,69.26
2017-07-04T04:15:03.003Z,69.35
2017-07-04T04:16:03.647Z,69.04
2017-07-04T04:17:04.251Z,69.54
2017-07-04T04:18:04.893Z,69.54
2017-07-04T04:19:05.573Z,69.64
2017-07-04T04:20:06.174Z,69.74
2017-07-04T04:21:06.793Z,69.51
2017-07-04T04:22:07.408Z,69.64
2017-07-04T04:23:08.025Z,69.26
2017-07-04T04:24:08.691Z,69.07
2017-07-04T04:25:09.308Z,69.64
2017-07-04T04:26:09.951Z,69.51
2017-07-04T04:27:10.553Z,69.42
2017-07-04T04:28:11.170Z,69.51
2017-07-04T04:29:11.838Z,69.54
2017-07-04T04:30:12.456Z,69.42
2017-07-04T04:31:13.072Z,69.83
2017-07-04T04:32:13.686Z,69.83
2017-07-04T04:33:14.308Z,69.45
2017-07-04T04:34:14.970Z,69.74
2017-07-04T04:35:15.592Z,69.74
2017-07-04T04:36:16.205Z,69.45
2017-07-04T04:37:16.823Z,69.74
2017-07-04T04:38:17.446Z,69.64
2017-07-04T04:39:18.144Z,69.54
2017-07-04T04:40:18.761Z,69.45
2017-07-04T04:41:19.377Z,69.45
2017-07-04T04:42:19.998Z,69.45
2017-07-04T04:43:20.613Z,69.74
2017-07-04T04:44:21.299Z,69.54
2017-07-04T04:45:21.896Z,69.74
2017-07-04T04:46:22.511Z,69.93
2017-07-04T04:47:23.160Z,69.54
2017-07-04T04:48:23.779Z,69.35
2017-07-04T04:49:24.446Z,69.26
2017-07-04T04:50:25.061Z,69.74
2017-07-04T04:51:25.675Z,69.64
2017-07-04T04:52:26.295Z,69.35
2017-07-04T04:53:26.911Z,69.45
2017-07-04T04:54:27.636Z,69.35
2017-07-04T04:55:28.239Z,69.93
2017-07-04T04:56:28.856Z,69.74
2017-07-04T04:57:29.474Z,69.74
2017-07-04T04:58:30.115Z,69.83
2017-07-04T04:59:30.794Z,69.74
2017-07-04T05:00:31.399Z,69.45
2017-07-04T05:01:32.013Z,69.74
2017-07-04T05:02:32.632Z,70.21
2017-07-04T05:03:33.248Z,69.74
2017-07-04T05:04:33.948Z,70.31
2017-07-04T05:05:34.570Z,69.64
2017-07-04T05:06:35.188Z,69.74
2017-07-04T05:07:35.801Z,70.21
2017-07-04T05:08:36.419Z,69.45
2017-07-04T05:09:37.088Z,69.83
2017-07-04T05:10:37.733Z,69.54
2017-07-04T05:11:38.350Z,69.54
2017-07-04T05:12:38.967Z,69.54
2017-07-04T05:13:39.581Z,70.31
2017-07-04T05:14:40.250Z,69.93
2017-07-04T05:15:40.867Z,70.31
2017-07-04T05:16:41.483Z,69.35
2017-07-04T05:17:42.104Z,70.02
2017-07-04T05:18:42.720Z,69.54
2017-07-04T05:19:43.388Z,69.54
2017-07-04T05:20:44.003Z,69.74
2017-07-04T05:21:44.624Z,70.12
2017-07-04T05:22:45.244Z,69.93
2017-07-04T05:23:45.863Z,70.02
2017-07-04T05:24:46.527Z,69.83
2017-07-04T05:25:47.142Z,69.93
2017-07-04T05:26:47.760Z,70.50
2017-07-04T05:27:48.380Z,70.50
2017-07-04T05:28:49.000Z,69.74
2017-07-04T05:29:49.662Z,69.74
2017-07-04T05:30:50.318Z,70.50
2017-07-04T05:31:50.933Z,69.64
2017-07-04T05:32:51.580Z,70.59
2017-07-04T05:33:52.178Z,70.02
2017-07-04T05:34:52.846Z,69.93
2017-07-04T05:35:53.463Z,69.93
2017-07-04T05:36:54.105Z,69.93
2017-07-04T05:37:54.709Z,70.02
2017-07-04T05:38:55.326Z,69.83
2017-07-04T05:39:56.025Z,69.93
2017-07-04T05:40:56.670Z,70.12
2017-07-04T05:41:57.305Z,70.02
2017-07-04T05:42:57.906Z,70.02
2017-07-04T05:43:58.523Z,70.02
2017-07-04T05:44:59.190Z,69.87
2017-07-04T05:45:59.830Z,69.68
2017-07-04T05:47:00.433Z,69.77
2017-07-04T05:48:01.061Z,70.06
2017-07-04T05:49:01.700Z,70.06
2017-07-04T05:50:02.368Z,70.34
2017-07-04T05:51:03.019Z,70.34
2017-07-04T05:52:03.632Z,70.44
2017-07-04T05:53:04.281Z,70.34
2017-07-04T05:54:04.896Z,69.77
2017-07-04T05:55:05.595Z,69.77
2017-07-04T05:56:06.211Z,69.68
2017-07-04T05:57:06.831Z,69.58
2017-07-04T05:58:07.447Z,69.68
2017-07-04T05:59:08.088Z,70.06
2017-07-04T06:00:08.741Z,70.06
2017-07-04T06:01:09.356Z,70.44
2017-07-04T06:02:09.972Z,70.25
2017-07-04T06:03:10.589Z,69.77
2017-07-04T06:04:11.205Z,70.44
2017-07-04T06:05:11.870Z,70.06
2017-07-04T06:06:12.495Z,69.87
2017-07-04T06:07:13.108Z,70.06
2017-07-04T06:08:13.751Z,69.87
2017-07-04T06:09:14.354Z,70.28
2017-07-04T06:10:15.053Z,69.96
2017-07-04T06:11:15.655Z,69.81
2017-07-04T06:12:16.271Z,69.81
2017-07-04T06:13:16.887Z,69.81
2017-07-04T06:14:17.503Z,70.09
2017-07-04T06:15:18.169Z,70.09
2017-07-04T06:16:18.787Z,69.62
2017-07-04T06:17:19.408Z,69.81
2017-07-04T06:18:20.023Z,69.81
2017-07-04T06:19:20.641Z,69.81
2017-07-04T06:20:21.366Z,70.00
2017-07-04T06:21:21.974Z,69.90
2017-07-04T06:22:22.591Z,70.38
2017-07-04T06:23:23.214Z,70.38
2017-07-04T06:24:23.830Z,70.19
2017-07-04T06:25:24.499Z,70.28
2017-07-04T06:26:25.116Z,70.09
2017-07-04T06:27:25.732Z,70.09
2017-07-04T06:28:26.353Z,70.09
2017-07-04T06:29:26.971Z,69.90
2017-07-04T06:30:27.639Z,69.81
2017-07-04T06:31:28.259Z,70.09
2017-07-04T06:32:28.878Z,70.00
2017-07-04T06:33:29.493Z,70.00
2017-07-04T06:34:30.112Z,70.67
2017-07-04T06:35:30.780Z,70.09
2017-07-04T06:36:31.404Z,70.19
2017-07-04T06:37:32.019Z,70.19
2017-07-04T06:38:32.636Z,70.09
2017-07-04T06:39:33.256Z,70.19
2017-07-04T06:40:33.931Z,70.19
2017-07-04T06:41:34.542Z,69.90
2017-07-04T06:42:35.191Z,70.09
2017-07-04T06:43:35.791Z,70.00
2017-07-04T06:44:36.409Z,70.19
2017-07-04T06:45:37.078Z,70.47
2017-07-04T06:46:37.698Z,70.28
2017-07-04T06:47:38.315Z,69.93
2017-07-04T06:48:38.933Z,69.65
2017-07-04T06:49:39.551Z,69.56
2017-07-04T06:50:40.245Z,69.74
2017-07-04T06:51:40.877Z,69.65
2017-07-04T06:52:41.482Z,69.74
2017-07-04T06:53:42.100Z,69.74
2017-07-04T06:54:42.743Z,69.93
2017-07-04T06:55:43.399Z,69.56
2017-07-04T06:56:44.018Z,69.74
2017-07-04T06:57:44.635Z,69.27
2017-07-04T06:58:45.253Z,69.74
2017-07-04T06:59:45.872Z,69.37
2017-07-04T07:00:46.545Z,68.98
2017-07-04T07:01:47.156Z,68.98
2017-07-04T07:02:47.773Z,69.17
2017-07-04T07:03:48.393Z,69.37
2017-07-04T07:04:49.019Z,69.17
2017-07-04T07:05:49.684Z,69.17
2017-07-04T07:06:50.303Z,69.08
2017-07-04T07:07:50.953Z,69.37
2017-07-04T07:08:51.578Z,69.37
2017-07-04T07:09:52.195Z,69.08
2017-07-04T07:10:52.899Z,69.17
2017-07-04T07:11:53.513Z,68.88
2017-07-04T07:12:54.132Z,68.79
2017-07-04T07:13:54.774Z,68.51
2017-07-04T07:14:55.404Z,68.51
2017-07-04T07:15:56.060Z,68.63
2017-07-04T07:16:56.705Z,69.02
2017-07-04T07:17:57.327Z,68.73
2017-07-04T07:18:57.938Z,68.92
2017-07-04T07:19:58.552Z,68.63
2017-07-04T07:20:59.244Z,68.54
2017-07-04T07:21:59.851Z,68.63
2017-07-04T07:23:00.496Z,68.26
2017-07-04T07:24:01.101Z,68.44
2017-07-04T07:25:01.754Z,68.54
2017-07-04T07:26:02.445Z,68.73
2017-07-04T07:27:03.078Z,68.73
2017-07-04T07:28:03.683Z,68.73
2017-07-04T07:29:04.302Z,68.63
2017-07-04T07:30:04.927Z,67.68
2017-07-04T07:31:05.595Z,67.77
2017-07-04T07:32:06.212Z,68.06
2017-07-04T07:33:06.864Z,68.19
2017-07-04T07:34:07.484Z,68.16
2017-07-04T07:35:08.103Z,67.91
2017-07-04T07:36:08.780Z,67.87
2017-07-04T07:37:09.398Z,67.91
2017-07-04T07:38:10.041Z,68.00
2017-07-04T07:39:10.646Z,68.10
2017-07-04T07:40:11.266Z,67.91
2017-07-04T07:41:11.938Z,68.10
2017-07-04T07:42:12.555Z,68.19
2017-07-04T07:43:13.173Z,68.10
2017-07-04T07:44:13.795Z,67.62
2017-07-04T07:45:14.449Z,67.05
2017-07-04T07:46:15.145Z,66.95
2017-07-04T07:47:15.755Z,67.05
2017-07-04T07:48:16.375Z,67.52
2017-07-04T07:49:16.997Z,67.43
2017-07-04T07:50:17.645Z,67.71
2017-07-04T07:51:18.249Z,67.71
2017-07-04T07:52:18.874Z,68.00
2017-07-04T07:53:19.494Z,68.10
2017-07-04T07:54:20.138Z,68.23
2017-07-04T07:55:20.772Z,67.75
2017-07-04T07:56:21.426Z,67.65
2017-07-04T07:57:22.072Z,67.55
2017-07-04T07:58:22.677Z,67.46
2017-07-04T07:59:23.297Z,67.36
2017-07-04T08:00:23.921Z,66.79
2017-07-04T08:01:24.589Z,67.27
2017-07-04T08:02:25.213Z,66.50
2017-07-04T08:03:25.831Z,66.60
2017-07-04T08:04:26.457Z,66.60
2017-07-04T08:05:27.079Z,66.50
2017-07-04T08:06:27.746Z,66.89
2017-07-04T08:07:28.382Z,66.31
2017-07-04T08:08:29.032Z,66.89
2017-07-04T08:09:29.656Z,66.70
2017-07-04T08:10:30.276Z,66.99
2017-07-04T08:11:30.943Z,66.16
2017-07-04T08:12:31.573Z,65.77
2017-07-04T08:13:32.244Z,65.87
2017-07-04T08:14:32.853Z,65.87
2017-07-04T08:15:33.471Z,65.74
2017-07-04T08:16:34.173Z,66.63
2017-07-04T08:17:34.819Z,66.83
2017-07-04T08:18:35.426Z,66.25
2017-07-04T08:19:36.045Z,66.35
2017-07-04T08:20:36.709Z,66.35
2017-07-04T08:21:37.378Z,65.77
2017-07-04T08:22:37.999Z,65.97
2017-07-04T08:23:38.651Z,65.71
2017-07-04T08:24:39.272Z,65.81
2017-07-04T08:25:39.892Z,65.52
2017-07-04T08:26:40.564Z,65.52
2017-07-04T08:27:41.211Z,65.33
2017-07-04T08:28:41.819Z,65.61
2017-07-04T08:29:42.468Z,65.61
2017-07-04T08:30:43.072Z,65.23
2017-07-04T08:31:43.746Z,65.04
2017-07-04T08:32:44.398Z,64.95
2017-07-04T08:33:45.018Z,64.66
2017-07-04T08:34:45.646Z,64.75
2017-07-04T08:35:46.266Z,65.04
2017-07-04T08:36:46.937Z,64.28
2017-07-04T08:37:47.556Z,63.99
2017-07-04T08:38:48.176Z,64.28
2017-07-04T08:39:48.799Z,64.09
2017-07-04T08:40:49.424Z,64.47
2017-07-04T08:41:50.130Z,64.09
2017-07-04T08:42:50.747Z,64.95
2017-07-04T08:43:51.367Z,64.59
2017-07-04T08:44:51.988Z,64.50
2017-07-04T08:45:52.647Z,64.50
2017-07-04T08:46:53.320Z,63.93
2017-07-04T08:47:53.943Z,64.31
2017-07-04T08:48:54.562Z,64.31
2017-07-04T08:49:55.213Z,63.96
2017-07-04T08:50:55.866Z,64.02
2017-07-04T08:51:56.538Z,63.86
2017-07-04T08:52:57.159Z,63.96
2017-07-04T08:53:57.782Z,63.86
2017-07-04T08:54:58.400Z,63.39
2017-07-04T08:55:59.046Z,63.57
2017-07-04T08:56:59.726Z,62.52
2017-07-04T08:58:00.335Z,62.71
2017-07-04T08:59:00.980Z,62.43
2017-07-04T09:00:01.588Z,62.71
2017-07-04T09:01:02.208Z,62.52
2017-07-04T09:02:02.879Z,62.04
2017-07-04T09:03:03.500Z,61.85
2017-07-04T09:04:04.121Z,61.66
2017-07-04T09:05:04.744Z,62.14
2017-07-04T09:06:05.363Z,62.07
2017-07-04T09:07:06.034Z,61.88
2017-07-04T09:08:06.655Z,61.60
2017-07-04T09:09:07.316Z,61.69
2017-07-04T09:10:07.934Z,61.50
2017-07-04T09:11:08.555Z,61.11
2017-07-04T09:12:09.258Z,60.44
2017-07-04T09:13:09.878Z,60.44
2017-07-04T09:14:10.504Z,60.64
2017-07-04T09:15:11.126Z,60.44
2017-07-04T09:16:11.750Z,60.83
2017-07-04T09:17:12.418Z,60.44
2017-07-04T09:18:13.043Z,60.06
2017-07-04T09:19:13.666Z,59.68
2017-07-04T09:20:14.290Z,58.72
2017-07-04T09:21:14.909Z,59.39
2017-07-04T09:22:15.579Z,59.39
2017-07-04T09:23:16.204Z,59.97
2017-07-04T09:24:16.822Z,59.71
2017-07-04T09:25:17.445Z,59.04
2017-07-04T09:26:18.092Z,58.17
2017-07-04T09:27:18.750Z,58.46
2017-07-04T09:28:19.371Z,59.04
2017-07-04T09:29:19.992Z,58.94
2017-07-04T09:30:20.612Z,58.97
2017-07-04T09:31:21.263Z,58.49
2017-07-04T09:32:21.919Z,58.30
2017-07-04T09:33:22.569Z,58.30
2017-07-04T09:34:23.178Z,57.92
2017-07-04T09:35:23.830Z,57.72
2017-07-04T09:36:24.480Z,57.24
2017-07-04T09:37:25.136Z,56.86
2017-07-04T09:38:25.769Z,55.80
2017-07-04T09:39:26.383Z,55.42
2017-07-04T09:40:27.003Z,56.86
2017-07-04T09:41:27.626Z,56.29
2017-07-04T09:42:28.297Z,56.19
2017-07-04T09:43:28.951Z,55.52
2017-07-04T09:44:29.608Z,55.62
2017-07-04T09:45:30.212Z,55.80
2017-07-04T09:46:30.833Z,55.71
2017-07-04T09:47:31.505Z,55.93
2017-07-04T09:48:32.128Z,55.74
2017-07-04T09:49:32.750Z,55.35
2017-07-04T09:50:33.378Z,55.45
2017-07-04T09:51:34.022Z,55.83
2017-07-04T09:52:34.681Z,55.45
2017-07-04T09:53:35.309Z,55.67
2017-07-04T09:54:35.932Z,54.90
2017-07-04T09:55:36.551Z,54.33
2017-07-04T09:56:37.173Z,54.52
2017-07-04T09:57:37.851Z,53.94
2017-07-04T09:58:38.469Z,54.61
2017-07-04T09:59:39.097Z,54.23
2017-07-04T10:00:39.717Z,54.45
2017-07-04T10:01:40.340Z,53.68
2017-07-04T10:02:41.018Z,52.05
2017-07-04T10:03:41.646Z,51.50
2017-07-04T10:04:42.275Z,50.82
2017-07-04T10:05:42.891Z,49.67
2017-07-04T10:06:43.513Z,49.00
2017-07-04T10:07:44.187Z,48.23
2017-07-04T10:08:44.816Z,47.17
2017-07-04T10:09:45.461Z,46.59
2017-07-04T10:10:46.098Z,46.21
2017-07-04T10:11:46.708Z,46.69
2017-07-04T10:12:47.383Z,46.31
2017-07-04T10:13:48.035Z,46.41
2017-07-04T10:14:48.661Z,45.76
2017-07-04T10:15:49.281Z,46.53
2017-07-04T10:16:49.904Z,45.47
2017-07-04T10:17:50.604Z,45.47
2017-07-04T10:18:51.213Z,44.31
2017-07-04T10:19:51.870Z,43.84
2017-07-04T10:20:52.480Z,44.02
2017-07-04T10:21:53.103Z,42.39
2017-07-04T10:22:53.799Z,41.91
2017-07-04T10:23:54.483Z,41.72
2017-07-04T10:24:55.121Z,38.84
2017-07-04T10:25:55.732Z,39.22
2017-07-04T10:26:56.355Z,40.28
2017-07-04T10:27:57.029Z,40.37
2017-07-04T10:28:57.660Z,40.85
2017-07-04T10:29:58.281Z,41.14
2017-07-04T10:30:58.930Z,41.06
2017-07-04T10:31:59.542Z,39.62
2017-07-04T10:33:00.218Z,37.51
2017-07-04T10:34:00.843Z,36.64
2017-07-04T10:35:01.468Z,36.83
2017-07-04T10:36:02.092Z,37.12
2017-07-04T10:37:02.716Z,37.79
2017-07-04T10:38:03.389Z,37.79
2017-07-04T10:39:04.020Z,38.18
2017-07-04T10:40:04.643Z,37.81
2017-07-04T10:41:05.272Z,36.47
2017-07-04T10:42:05.919Z,35.41
2017-07-04T10:43:06.609Z,35.22
2017-07-04T10:44:07.266Z,36.08
2017-07-04T10:45:07.889Z,36.76
2017-07-04T10:46:08.512Z,37.04
2017-07-04T10:47:09.137Z,36.47
2017-07-04T10:48:09.812Z,36.87
2017-07-04T10:49:10.440Z,36.68
2017-07-04T10:50:11.066Z,35.99
2017-07-04T10:51:11.690Z,36.00
2017-07-04T10:52:12.315Z,35.12
2017-07-04T10:53:12.988Z,35.22
2017-07-04T10:54:13.613Z,35.41
2017-07-04T10:55:14.237Z,35.89
2017-07-04T10:56:14.862Z,36.47
2017-07-04T10:57:15.530Z,36.56
2017-07-04T10:58:16.188Z,36.19
2017-07-04T10:59:16.852Z,36.58
2017-07-04T11:00:17.484Z,36.49
2017-07-04T11:01:18.101Z,36.77
2017-07-04T11:02:18.725Z,36.99
2017-07-04T11:03:19.399Z,36.69
2017-07-04T11:04:20.023Z,35.35
2017-07-04T11:05:20.647Z,35.16
2017-07-04T11:06:21.277Z,34.96
2017-07-04T11:07:21.906Z,35.54
2017-07-04T11:08:22.577Z,35.83
2017-07-04T11:09:23.201Z,35.35
2017-07-04T11:10:23.869Z,35.16
2017-07-04T11:11:24.493Z,35.65
2017-07-04T11:12:25.114Z,35.27
2017-07-04T11:13:25.818Z,35.27
2017-07-04T11:14:26.474Z,34.01
2017-07-04T11:15:27.125Z,32.86
2017-07-04T11:16:27.737Z,33.91
2017-07-04T11:17:28.362Z,33.91
2017-07-04T11:18:29.071Z,33.33
2017-07-04T11:19:29.695Z,32.17
2017-07-04T11:20:30.321Z,32.75
2017-07-04T11:21:30.973Z,33.71
2017-07-04T11:22:31.612Z,33.42
2017-07-04T11:23:32.273Z,33.23
2017-07-04T11:24:32.929Z,34.00
2017-07-04T11:25:33.560Z,33.92
2017-07-04T11:26:34.182Z,33.73
2017-07-04T11:27:34.839Z,34.11
2017-07-04T11:28:35.547Z,33.73
2017-07-04T11:29:36.172Z,31.90
2017-07-04T11:30:36.799Z,32.18
2017-07-04T11:31:37.423Z,33.05
2017-07-04T11:32:38.050Z,31.80
2017-07-04T11:33:38.730Z,31.90
2017-07-04T11:34:39.358Z,32.38
2017-07-04T11:35:40.018Z,32.86
2017-07-04T11:36:40.643Z,33.07
2017-07-04T11:37:41.268Z,32.97
2017-07-04T11:38:41.942Z,32.87
2017-07-04T11:39:42.570Z,32.99
2017-07-04T11:40:43.193Z,32.89
2017-07-04T11:41:43.825Z,31.35
2017-07-04T11:42:44.453Z,31.63
2017-07-04T11:43:45.127Z,31.46
2017-07-04T11:44:45.759Z,30.49
2017-07-04T11:45:46.381Z,29.71
2017-07-04T11:46:47.035Z,29.32
2017-07-04T11:47:47.646Z,29.32
2017-07-04T11:48:48.346Z,30.19
2017-07-04T11:49:48.959Z,29.22
2017-07-04T11:50:49.584Z,29.22
2017-07-04T11:51:50.211Z,28.74
2017-07-04T11:52:50.835Z,28.45
2017-07-04T11:53:51.511Z,28.94
2017-07-04T11:54:52.137Z,29.34
2017-07-04T11:55:52.764Z,30.21
2017-07-04T11:56:53.397Z,29.24
2017-07-04T11:57:54.023Z,28.85
2017-07-04T11:58:54.722Z,28.37
2017-07-04T11:59:55.386Z,28.48
2017-07-04T12:00:56.010Z,27.70
2017-07-04T12:01:56.636Z,27.31
2017-07-04T12:02:57.294Z,27.31
2017-07-04T12:03:57.971Z,28.76
2017-07-04T12:04:58.602Z,28.87
2017-07-04T12:05:59.231Z,27.91
2017-07-04T12:06:59.856Z,25.78
2017-07-04T12:08:00.483Z,25.38
2017-07-04T12:09:01.165Z,25.96
2017-07-04T12:10:01.797Z,26.82
2017-07-04T12:11:02.440Z,26.92
2017-07-04T12:12:03.054Z,27.22
2017-07-04T12:13:03.680Z,27.31
2017-07-04T12:14:04.357Z,27.12
2017-07-04T12:15:04.991Z,26.93
2017-07-04T12:16:05.615Z,27.33
2017-07-04T12:17:06.242Z,27.33
2017-07-04T12:18:06.875Z,27.33
2017-07-04T12:19:07.550Z,27.33
2017-07-04T12:20:08.209Z,25.97
2017-07-04T12:21:08.874Z,26.65
2017-07-04T12:22:09.502Z,26.93
2017-07-04T12:23:10.130Z,27.33
2017-07-04T12:24:10.807Z,27.61
2017-07-04T12:25:11.461Z,27.34
2017-07-04T12:26:12.100Z,28.30
2017-07-04T12:27:12.714Z,28.59
2017-07-04T12:28:13.343Z,28.03
2017-07-04T12:29:14.258Z,27.45
2017-07-04T12:30:14.884Z,25.71
2017-07-04T12:31:15.514Z,25.71
2017-07-04T12:32:16.141Z,25.90
2017-07-04T12:33:16.770Z,25.23
2017-07-04T12:34:17.447Z,25.70
2017-07-04T12:35:18.074Z,25.79
2017-07-04T12:36:18.734Z,25.98
2017-07-04T12:37:19.370Z,26.08
2017-07-04T12:38:19.994Z,26.29
2017-07-04T12:39:20.671Z,26.39
2017-07-04T12:40:21.302Z,25.60
2017-07-04T12:41:21.936Z,25.21
2017-07-04T12:42:22.560Z,25.60
2017-07-04T12:43:23.191Z,25.98
2017-07-04T12:44:23.874Z,26.28
2017-07-04T12:45:24.498Z,25.98
2017-07-04T12:46:25.126Z,26.08
2017-07-04T12:47:25.754Z,25.98
2017-07-04T12:48:26.392Z,26.18
2017-07-04T12:49:27.089Z,25.99
2017-07-04T12:50:27.759Z,26.19
2017-07-04T12:51:28.415Z,25.70
2017-07-04T12:52:29.043Z,25.42
2017-07-04T12:53:29.706Z,26.08
2017-07-04T12:54:30.365Z,26.28
2017-07-04T12:55:31.019Z,25.50
2017-07-04T12:56:31.657Z,25.81
2017-07-04T12:57:32.275Z,26.57
2017-07-04T12:58:32.907Z,26.39
2017-07-04T12:59:33.583Z,25.99
2017-07-04T13:00:34.214Z,25.23